createdAt,value
2023-05-12T00:03:55.260Z,13.46
2023-05-12T00:07:58.346Z,13.39
2023-05-12T00:12:03.794Z,13.34
2023-05-12T00:16:07.296Z,13.31
2023-05-12T00:20:11.491Z,13.28
2023-05-12T00:24:14.953Z,13.23
2023-05-12T00:28:19.862Z,13.16
2023-05-12T00:32:23.142Z,13.13
2023-05-12T00:36:26.402Z,13.07
2023-05-12T00:40:29.304Z,13.04
2023-05-12T00:44:33.571Z,12.98
2023-05-12T00:48:37.244Z,12.99
2023-05-12T00:52:40.204Z,12.99
2023-05-12T00:56:43.692Z,12.98
2023-05-12T01:00:48.155Z,12.94
2023-05-12T01:04:51.677Z,12.90
2023-05-12T01:08:55.450Z,12.90
2023-05-12T01:12:59.048Z,12.87
2023-05-12T01:17:08.479Z,12.87
2023-05-12T01:21:12.442Z,12.85
2023-05-12T01:25:16.715Z,12.83
2023-05-12T01:29:22.887Z,12.79
2023-05-12T01:33:26.718Z,12.72
2023-05-12T01:37:29.686Z,12.66
2023-05-12T01:41:33.350Z,12.67
2023-05-12T01:45:38.660Z,12.63
2023-05-12T01:49:41.671Z,12.59
2023-05-12T01:53:49.066Z,12.54
2023-05-12T01:57:52.086Z,12.52
2023-05-12T02:01:57.355Z,12.49
2023-05-12T02:06:06.298Z,12.39
2023-05-12T02:10:10.466Z,12.30
2023-05-12T02:14:13.604Z,12.24
2023-05-12T02:18:20.491Z,12.26
2023-05-12T02:22:23.921Z,12.28
2023-05-12T02:26:26.945Z,12.27
2023-05-12T02:30:30.856Z,12.24
2023-05-12T02:34:35.307Z,12.24
2023-05-12T02:38:39.949Z,12.20
2023-05-12T02:42:43.586Z,12.19
2023-05-12T02:46:46.565Z,12.20
2023-05-12T02:50:50.930Z,12.21
2023-05-12T02:54:54.104Z,12.22
2023-05-12T02:58:57.101Z,12.20
2023-05-12T03:03:00.086Z,12.17
2023-05-12T03:07:05.744Z,12.11
2023-05-12T03:11:08.927Z,12.09
2023-05-12T03:15:12.640Z,12.03
2023-05-12T03:19:15.627Z,11.98
2023-05-12T03:23:20.044Z,11.93
2023-05-12T03:27:23.399Z,11.92
2023-05-12T03:31:26.869Z,11.90
2023-05-12T03:35:30.959Z,11.85
2023-05-12T03:39:38.867Z,11.83
2023-05-12T03:43:42.035Z,11.84
2023-05-12T03:47:45.095Z,11.88
2023-05-12T03:51:48.236Z,11.85
2023-05-12T03:55:52.525Z,11.85
2023-05-12T03:59:56.103Z,11.82
2023-05-12T04:03:59.147Z,11.77
2023-05-12T04:08:02.191Z,11.71
2023-05-12T04:12:07.759Z,11.72
2023-05-12T04:16:10.763Z,11.70
2023-05-12T04:20:16.576Z,11.67
2023-05-12T04:24:19.527Z,11.67
2023-05-12T04:28:24.192Z,11.68
2023-05-12T04:32:27.178Z,11.61
2023-05-12T04:36:30.884Z,11.55
2023-05-12T04:40:35.113Z,11.51
2023-05-12T04:44:40.873Z,11.51
2023-05-12T04:48:45.327Z,11.54
2023-05-12T04:52:48.464Z,11.60
2023-05-12T04:56:51.598Z,11.66
2023-05-12T05:00:56.174Z,11.69
2023-05-12T05:04:59.212Z,11.69
2023-05-12T05:09:02.359Z,11.71
2023-05-12T05:13:06.240Z,11.74
2023-05-12T05:17:12.210Z,11.74
2023-05-12T05:21:16.259Z,11.74
2023-05-12T05:25:20.451Z,11.71
2023-05-12T05:29:26.543Z,11.67
2023-05-12T05:33:31.316Z,11.68
2023-05-12T05:37:34.574Z,11.67
2023-05-12T05:41:37.758Z,11.66
2023-05-12T05:45:40.823Z,11.67
2023-05-12T05:49:45.769Z,11.71
2023-05-12T05:53:49.505Z,11.70
2023-05-12T05:57:53.958Z,11.70
2023-05-12T06:01:57.069Z,11.69
2023-05-12T06:06:01.508Z,11.63
2023-05-12T06:10:06.122Z,11.59
2023-05-12T06:14:10.054Z,11.58
2023-05-12T06:18:12.974Z,11.56
2023-05-12T06:22:17.403Z,11.51
2023-05-12T06:26:22.067Z,11.53
2023-05-12T06:30:25.729Z,11.54
2023-05-12T06:34:30.820Z,11.57
2023-05-12T06:38:35.429Z,11.60
2023-05-12T06:42:38.408Z,11.68
2023-05-12T06:46:45.520Z,11.69
2023-05-12T06:50:48.446Z,11.70
2023-05-12T06:54:52.918Z,11.75
2023-05-12T06:59:00.912Z,11.75
2023-05-12T07:03:03.942Z,11.71
2023-05-12T07:07:21.708Z,11.70
2023-05-12T07:11:26.022Z,11.70
2023-05-12T07:15:31.201Z,11.68
2023-05-12T07:19:35.552Z,11.68
2023-05-12T07:23:39.139Z,11.70
2023-05-12T07:27:43.394Z,11.72
2023-05-12T07:31:46.506Z,11.66
2023-05-12T07:35:49.543Z,11.66
2023-05-12T07:39:52.506Z,11.64
2023-05-12T07:43:56.827Z,11.60
2023-05-12T07:47:59.948Z,11.59
2023-05-12T07:52:03.088Z,11.64
2023-05-12T07:56:08.137Z,11.61
2023-05-12T08:00:14.387Z,11.60
2023-05-12T08:04:17.498Z,11.61
2023-05-12T08:08:20.439Z,11.60
2023-05-12T08:12:23.319Z,11.60
2023-05-12T08:16:27.836Z,11.59
2023-05-12T08:20:31.542Z,11.57
2023-05-12T08:24:34.480Z,11.59
2023-05-12T08:28:40.288Z,11.62
2023-05-12T08:32:44.631Z,11.69
2023-05-12T08:36:47.676Z,11.71
2023-05-12T08:41:03.206Z,11.68
2023-05-12T08:45:08.211Z,11.69
2023-05-12T08:49:16.424Z,11.70
2023-05-12T08:53:23.237Z,11.74
2023-05-12T08:57:28.837Z,11.74
2023-05-12T09:01:36.729Z,11.76
2023-05-12T09:05:42.568Z,11.72
2023-05-12T09:09:48.117Z,11.70
2023-05-12T09:13:55.783Z,11.70
2023-05-12T09:17:58.877Z,11.72
2023-05-12T09:22:03.195Z,11.66
2023-05-12T09:26:06.839Z,11.68
2023-05-12T09:30:30.477Z,11.67
2023-05-12T09:34:35.766Z,11.73
2023-05-12T09:38:40.321Z,11.70
2023-05-12T09:42:43.662Z,11.71
2023-05-12T09:46:47.781Z,11.83
2023-05-12T09:50:55.310Z,11.83
2023-05-12T09:55:09.717Z,11.91
2023-05-12T09:59:29.638Z,11.96
2023-05-12T10:03:34.742Z,11.96
2023-05-12T10:07:38.330Z,11.94
2023-05-12T10:11:44.264Z,11.92
2023-05-12T10:15:49.456Z,11.90
2023-05-12T10:19:53.882Z,11.90
2023-05-12T10:23:58.063Z,11.85
2023-05-12T10:28:04.948Z,11.85
2023-05-12T10:32:09.684Z,11.90
2023-05-12T10:36:19.889Z,11.93
2023-05-12T10:40:28.018Z,11.94
2023-05-12T10:44:32.375Z,12.00
2023-05-12T10:48:35.605Z,12.04
2023-05-12T10:52:38.678Z,12.08
2023-05-12T10:56:46.130Z,12.18
2023-05-12T11:00:53.767Z,12.21
2023-05-12T11:04:59.155Z,12.21
2023-05-12T11:09:03.268Z,12.28
2023-05-12T11:13:06.412Z,12.33
2023-05-12T11:17:11.498Z,12.38
2023-05-12T11:21:14.644Z,12.38
2023-05-12T11:25:18.544Z,12.41
2023-05-12T11:29:22.072Z,12.37
2023-05-12T11:33:26.348Z,12.30
2023-05-12T11:37:29.369Z,12.28
2023-05-12T11:41:32.428Z,12.25
2023-05-12T11:45:35.917Z,12.28
2023-05-12T11:49:49.556Z,12.31
2023-05-12T11:53:53.815Z,12.28
2023-05-12T11:58:01.910Z,12.19
2023-05-12T12:02:05.279Z,12.11
2023-05-12T12:06:10.861Z,12.06
2023-05-12T12:10:14.969Z,12.01
2023-05-12T12:14:17.885Z,11.99
2023-05-12T12:18:21.402Z,11.97
2023-05-12T12:22:25.854Z,12.00
2023-05-12T12:26:28.772Z,12.01
2023-05-12T12:30:31.771Z,11.99
2023-05-12T12:34:34.651Z,11.90
2023-05-12T12:38:39.026Z,11.83
2023-05-12T12:42:41.959Z,11.80
2023-05-12T12:46:44.880Z,11.71
2023-05-12T12:50:48.493Z,11.64
2023-05-12T12:54:53.136Z,11.60
2023-05-12T12:58:56.640Z,11.59
2023-05-12T13:03:00.687Z,11.55
2023-05-12T13:07:04.009Z,11.55
2023-05-12T13:11:08.908Z,11.52
2023-05-12T13:15:12.730Z,11.54
2023-05-12T13:19:15.678Z,11.54
2023-05-12T13:23:18.567Z,11.56
2023-05-12T13:27:22.917Z,11.54
2023-05-12T13:31:26.139Z,11.59
2023-05-12T13:35:29.150Z,11.64
2023-05-12T13:39:32.114Z,11.65
2023-05-12T13:43:36.525Z,11.67
2023-05-12T13:47:39.553Z,11.64
2023-05-12T13:51:42.634Z,11.63
2023-05-12T13:55:45.696Z,11.62
2023-05-12T13:59:50.479Z,11.61
2023-05-12T14:03:53.450Z,11.58
2023-05-12T14:07:56.764Z,11.55
2023-05-12T14:12:00.159Z,11.52
2023-05-12T14:16:04.749Z,11.48
2023-05-12T14:20:09.366Z,11.47
2023-05-12T14:24:12.297Z,11.50
2023-05-12T14:28:16.780Z,11.54
2023-05-12T14:32:21.144Z,11.58
2023-05-12T14:36:24.061Z,11.60
2023-05-12T14:40:27.249Z,11.62
2023-05-12T14:44:30.160Z,11.64
2023-05-12T14:48:34.453Z,11.63
2023-05-12T14:52:39.128Z,11.64
2023-05-12T14:56:42.950Z,11.65
2023-05-12T15:00:47.336Z,11.71
2023-05-12T15:04:51.757Z,11.75
2023-05-12T15:08:57.407Z,11.75
2023-05-12T15:13:00.307Z,11.77
2023-05-12T15:17:03.242Z,11.82
2023-05-12T15:21:07.684Z,11.79
2023-05-12T15:25:11.575Z,11.82
2023-05-12T15:29:14.687Z,11.85
2023-05-12T15:33:21.417Z,11.89
2023-05-12T15:37:25.984Z,11.89
2023-05-12T15:41:28.883Z,11.90
2023-05-12T15:45:32.167Z,11.94
2023-05-12T15:49:35.073Z,11.93
2023-05-12T15:53:39.508Z,11.92
2023-05-12T15:57:42.690Z,11.89
2023-05-12T16:01:45.772Z,11.84
2023-05-12T16:05:48.911Z,11.86
2023-05-12T16:09:53.224Z,11.87
2023-05-12T16:13:57.048Z,11.87
2023-05-12T16:18:00.115Z,11.85
2023-05-12T16:22:03.252Z,11.85
2023-05-12T16:26:07.590Z,11.88
2023-05-12T16:30:13.260Z,11.89
2023-05-12T16:34:16.212Z,11.79
2023-05-12T16:38:19.116Z,11.74
2023-05-12T16:42:23.399Z,11.68
2023-05-12T16:46:26.492Z,11.64
2023-05-12T16:50:29.666Z,11.61
2023-05-12T16:54:33.075Z,11.54
2023-05-12T16:58:37.544Z,11.49
2023-05-12T17:02:40.953Z,11.40
2023-05-12T17:06:44.029Z,11.33
2023-05-12T17:10:46.967Z,11.25
2023-05-12T17:15:03.449Z,11.21
2023-05-12T17:19:23.137Z,11.11
2023-05-12T17:23:26.717Z,11.09
2023-05-12T17:27:29.700Z,11.08
2023-05-12T17:31:34.205Z,11.09
2023-05-12T17:35:37.389Z,11.10
2023-05-12T17:39:40.552Z,11.11
2023-05-12T17:43:43.632Z,11.12
2023-05-12T17:47:51.247Z,11.14
2023-05-12T17:51:55.043Z,11.12
2023-05-12T17:55:58.299Z,11.10
2023-05-12T18:00:05.698Z,11.05
2023-05-12T18:04:19.303Z,11.03
2023-05-12T18:08:22.696Z,11.03
2023-05-12T18:12:25.670Z,10.99
2023-05-12T18:16:29.612Z,11.02
2023-05-12T18:20:34.262Z,10.99
2023-05-12T18:24:37.510Z,10.97
2023-05-12T18:28:43.354Z,10.95
2023-05-12T18:32:46.328Z,10.95
2023-05-12T18:36:50.937Z,10.94
2023-05-12T18:40:54.027Z,10.97
2023-05-12T18:44:57.530Z,10.96
2023-05-12T18:49:00.634Z,10.97
2023-05-12T18:53:05.076Z,10.97
2023-05-12T18:57:08.251Z,10.98
2023-05-12T19:01:11.437Z,10.98
2023-05-12T19:05:14.471Z,11.00
2023-05-12T19:09:18.826Z,10.99
2023-05-12T19:13:21.755Z,10.94
2023-05-12T19:17:24.949Z,10.89
2023-05-12T19:21:32.380Z,10.86
2023-05-12T19:25:36.827Z,10.83
2023-05-12T19:29:39.879Z,10.84
2023-05-12T19:33:47.783Z,10.87
2023-05-12T19:37:50.768Z,10.88
2023-05-12T19:41:57.426Z,10.87
2023-05-12T19:46:01.578Z,10.85
2023-05-12T19:50:07.718Z,10.82
2023-05-12T19:54:10.908Z,10.88
2023-05-12T19:58:15.400Z,10.91
2023-05-12T20:02:18.756Z,10.91
2023-05-12T20:06:22.517Z,10.92
2023-05-12T20:10:25.387Z,10.95
2023-05-12T20:14:29.681Z,10.98
2023-05-12T20:18:32.895Z,10.99
2023-05-12T20:22:35.870Z,10.97
2023-05-12T20:26:38.805Z,10.96
2023-05-12T20:30:43.108Z,10.96
2023-05-12T20:34:46.185Z,10.95
2023-05-12T20:38:49.157Z,10.96
2023-05-12T20:42:52.581Z,10.97
2023-05-12T20:46:57.138Z,10.98
2023-05-12T20:51:00.293Z,10.95
2023-05-12T20:55:03.531Z,10.91
2023-05-12T20:59:06.585Z,10.88
2023-05-12T21:03:15.117Z,10.83
2023-05-12T21:07:18.251Z,10.84
2023-05-12T21:11:23.114Z,10.84
2023-05-12T21:15:27.001Z,10.85
2023-05-12T21:19:31.591Z,10.80
2023-05-12T21:23:36.325Z,10.78
2023-05-12T21:27:40.929Z,10.74
2023-05-12T21:31:43.995Z,10.74
2023-05-12T21:35:49.881Z,10.72
2023-05-12T21:39:52.985Z,10.71
2023-05-12T21:43:56.015Z,10.71
2023-05-12T21:47:59.347Z,10.70
2023-05-12T21:52:04.119Z,10.68
2023-05-12T21:56:07.901Z,10.69
2023-05-12T22:00:12.850Z,10.69
2023-05-12T22:04:17.759Z,10.70
2023-05-12T22:08:22.093Z,10.68
2023-05-12T22:12:25.036Z,10.67
2023-05-12T22:16:40.658Z,10.61
2023-05-12T22:20:45.526Z,10.60
2023-05-12T22:24:49.891Z,10.56
2023-05-12T22:28:52.794Z,10.55
2023-05-12T22:32:56.307Z,10.54
2023-05-12T22:36:59.253Z,10.46
2023-05-12T22:41:03.723Z,10.43
2023-05-12T22:45:07.558Z,10.41
2023-05-12T22:49:10.601Z,10.43
2023-05-12T22:53:13.512Z,10.44
2023-05-12T22:57:17.778Z,10.41
2023-05-12T23:01:20.744Z,10.38
2023-05-12T23:05:24.193Z,10.38
2023-05-12T23:09:27.154Z,10.38
2023-05-12T23:13:31.859Z,10.37
2023-05-12T23:17:34.927Z,10.33
2023-05-12T23:21:37.955Z,10.31
2023-05-12T23:25:42.536Z,10.36
2023-05-12T23:29:46.929Z,10.37
2023-05-12T23:33:50.035Z,10.37
2023-05-12T23:37:53.178Z,10.36
2023-05-12T23:41:57.343Z,10.34
2023-05-12T23:46:02.077Z,10.30
2023-05-12T23:50:05.896Z,10.27
2023-05-12T23:54:09.586Z,10.24
2023-05-12T23:58:12.652Z,10.23
